Terminal Aerodrome Forecast
Issued by NWS Hastings, NE

Home | Current Version | Previous Version | Text Only | Print | Product List | Glossary On
Versions: 1 2 3 4 5 6 7 8 9 10 11 12 13
000
FTUS45 KGID 301818 AAA
TAFEAR
TAF AMD
KEAR 301818Z 3018/0118 22010KT P6SM SCT130 BKN250
     FM010200 10009KT P6SM BKN130
     FM010800 06008KT P6SM SCT130
     FM011400 01008KT P6SM SCT035
      AMD LTD TO CLD VIS AND WIND=

USA.gov is the U.S. government's official web portal to all federal, state and local government web resources and services.